createdAt,value
2023-11-06T00:00:38.192Z,98280.03
2023-11-06T00:03:08.077Z,98286.81
2023-11-06T00:05:39.358Z,98289.19
2023-11-06T00:08:09.657Z,98292.03
2023-11-06T00:10:39.592Z,98308.25
2023-11-06T00:13:09.495Z,98296.88
2023-11-06T00:15:39.551Z,98302.03
2023-11-06T00:18:09.529Z,98312.72
2023-11-06T00:20:39.729Z,98318.63
2023-11-06T00:23:09.601Z,98318.25
2023-11-06T00:25:39.667Z,98329.44
2023-11-06T00:28:09.753Z,98335.72
2023-11-06T00:30:39.627Z,98345.59
2023-11-06T00:33:09.513Z,98354.41
2023-11-06T00:35:39.440Z,98364.00
2023-11-06T00:38:10.030Z,98372.28
2023-11-06T00:40:39.666Z,98377.28
2023-11-06T00:43:09.565Z,98384.28
2023-11-06T00:45:39.329Z,98400.03
2023-11-06T00:48:09.595Z,98381.03
2023-11-06T00:50:39.549Z,98381.41
2023-11-06T00:53:10.397Z,98393.63
2023-11-06T00:55:41.459Z,98388.78
2023-11-06T00:58:11.686Z,98395.78
2023-11-06T01:00:42.629Z,98398.97
2023-11-06T01:03:13.076Z,98402.91
2023-11-06T01:05:43.688Z,98410.97
2023-11-06T01:08:13.925Z,98418.44
2023-11-06T01:10:44.324Z,98417.97
2023-11-06T01:13:14.840Z,98422.53
2023-11-06T01:15:43.623Z,98420.53
2023-11-06T01:18:12.972Z,98426.56
2023-11-06T01:20:42.933Z,98431.94
2023-11-06T01:23:11.301Z,98443.66
2023-11-06T01:25:44.297Z,98442.03
2023-11-06T01:28:14.581Z,98445.59
2023-11-06T01:30:42.982Z,98458.53
2023-11-06T01:33:11.476Z,98450.03
2023-11-06T01:35:39.889Z,98466.47
2023-11-06T01:38:09.105Z,98469.53
2023-11-06T01:40:36.643Z,98474.22
2023-11-06T01:43:08.843Z,98476.53
2023-11-06T01:45:40.873Z,98476.28
2023-11-06T01:48:11.307Z,98475.09
2023-11-06T01:50:42.241Z,98489.63
2023-11-06T01:53:14.577Z,98467.63
2023-11-06T01:55:48.245Z,98492.31
2023-11-06T01:58:20.465Z,98495.28
2023-11-06T02:00:54.311Z,98499.22
2023-11-06T02:03:22.966Z,98505.19
2023-11-06T02:05:50.538Z,98509.88
2023-11-06T02:08:18.795Z,98517.28
2023-11-06T02:10:47.687Z,98518.97
2023-11-06T02:13:15.594Z,98520.66
2023-11-06T02:15:43.956Z,98525.78
2023-11-06T02:18:12.970Z,98530.63
2023-11-06T02:20:41.016Z,98537.09
2023-11-06T02:23:10.334Z,98541.47
2023-11-06T02:25:37.814Z,98543.94
2023-11-06T02:28:06.125Z,98558.19
2023-11-06T02:30:39.873Z,98547.44
2023-11-06T02:33:10.184Z,98556.34
2023-11-06T02:35:40.266Z,98559.81
2023-11-06T02:38:10.027Z,98557.88
2023-11-06T02:40:40.179Z,98558.66
2023-11-06T02:43:09.900Z,98555.19
2023-11-06T02:45:39.840Z,98570.22
2023-11-06T02:48:09.958Z,98580.03
2023-11-06T02:50:40.176Z,98585.06
2023-11-06T02:53:10.005Z,98597.44
2023-11-06T02:55:40.153Z,98599.56
2023-11-06T02:58:10.155Z,98605.78
2023-11-06T03:00:40.898Z,98617.63
2023-11-06T03:03:11.113Z,98618.25
2023-11-06T03:05:41.250Z,98622.44
2023-11-06T03:08:11.432Z,98638.09
2023-11-06T03:10:40.969Z,98639.47
2023-11-06T03:13:10.867Z,98646.84
2023-11-06T03:15:40.783Z,98646.75
2023-11-06T03:18:11.126Z,98643.53
2023-11-06T03:20:41.440Z,98659.94
2023-11-06T03:23:11.638Z,98670.34
2023-11-06T03:25:41.369Z,98669.63
2023-11-06T03:28:11.247Z,98683.16
2023-11-06T03:30:41.172Z,98691.97
2023-11-06T03:33:11.635Z,98697.84
2023-11-06T03:35:41.688Z,98691.69
2023-11-06T03:38:12.373Z,98697.03
2023-11-06T03:40:40.918Z,98706.44
2023-11-06T03:43:08.351Z,98705.81
2023-11-06T03:45:36.704Z,98704.56
2023-11-06T03:48:05.984Z,98716.00
2023-11-06T03:50:33.587Z,98727.19
2023-11-06T03:53:02.074Z,98714.47
2023-11-06T03:55:30.479Z,98721.28
2023-11-06T03:57:58.965Z,98723.03
2023-11-06T04:00:28.270Z,98730.84
2023-11-06T04:02:55.771Z,98729.81
2023-11-06T04:05:24.415Z,98734.66
2023-11-06T04:07:53.443Z,98732.56
2023-11-06T04:10:21.093Z,98735.47
2023-11-06T04:12:49.481Z,98734.22
2023-11-06T04:15:18.651Z,98739.00
2023-11-06T04:17:46.604Z,98746.28
2023-11-06T04:20:15.342Z,98751.09
2023-11-06T04:22:43.200Z,98750.56
2023-11-06T04:25:11.830Z,98759.28
2023-11-06T04:27:40.099Z,98766.63
2023-11-06T04:30:09.348Z,98761.13
2023-11-06T04:32:38.842Z,98763.03
2023-11-06T04:35:07.188Z,98763.97
2023-11-06T04:37:44.075Z,98780.28
2023-11-06T04:40:13.798Z,98774.66
2023-11-06T04:42:41.924Z,98783.63
2023-11-06T04:45:12.717Z,98793.59
2023-11-06T04:47:42.104Z,98791.19
2023-11-06T04:50:13.636Z,98801.16
2023-11-06T04:52:42.620Z,98796.34
2023-11-06T04:55:12.336Z,98795.06
2023-11-06T04:57:42.217Z,98796.09
2023-11-06T05:00:22.084Z,98801.34
2023-11-06T05:02:52.345Z,98811.81
2023-11-06T05:05:23.157Z,98809.03
2023-11-06T05:07:52.404Z,98806.19
2023-11-06T05:10:22.512Z,98805.50
2023-11-06T05:12:52.684Z,98809.16
2023-11-06T05:15:22.889Z,98815.91
2023-11-06T05:17:53.176Z,98818.78
2023-11-06T05:20:24.329Z,98823.13
2023-11-06T05:22:54.745Z,98830.72
2023-11-06T05:25:24.878Z,98832.56
2023-11-06T05:27:55.695Z,98830.25
2023-11-06T05:30:25.896Z,98836.56
2023-11-06T05:32:56.535Z,98831.72
2023-11-06T05:35:27.686Z,98834.84
2023-11-06T05:37:57.939Z,98836.44
2023-11-06T05:40:28.106Z,98849.91
2023-11-06T05:42:58.508Z,98846.56
2023-11-06T05:45:26.779Z,98858.53
2023-11-06T05:47:55.217Z,98857.53
2023-11-06T05:50:24.201Z,98859.13
2023-11-06T05:52:52.039Z,98863.13
2023-11-06T05:55:20.401Z,98867.97
2023-11-06T05:57:48.810Z,98866.34
2023-11-06T06:00:18.351Z,98877.69
2023-11-06T06:02:46.447Z,98878.72
2023-11-06T06:05:14.906Z,98892.66
2023-11-06T06:07:43.146Z,98895.34
2023-11-06T06:10:14.295Z,98892.50
2023-11-06T06:12:44.275Z,98888.69
2023-11-06T06:15:14.628Z,98907.09
2023-11-06T06:17:44.667Z,98907.09
2023-11-06T06:20:15.567Z,98903.09
2023-11-06T06:22:45.942Z,98910.00
2023-11-06T06:25:17.005Z,98913.09
2023-11-06T06:27:47.643Z,98922.06
2023-11-06T06:30:17.564Z,98930.34
2023-11-06T06:32:48.002Z,98932.75
2023-11-06T06:35:18.525Z,98943.44
2023-11-06T06:37:48.591Z,98947.69
2023-11-06T06:40:19.234Z,98952.97
2023-11-06T06:42:48.660Z,98958.47
2023-11-06T06:45:18.647Z,98957.69
2023-11-06T06:47:47.016Z,98962.28
2023-11-06T06:50:15.446Z,98958.00
2023-11-06T06:52:43.798Z,98969.25
2023-11-06T06:55:12.502Z,98978.00
2023-11-06T06:57:40.665Z,98975.34
2023-11-06T07:00:10.671Z,98980.38
2023-11-06T07:02:40.795Z,98988.97
2023-11-06T07:05:10.669Z,98989.50
2023-11-06T07:07:41.313Z,99001.38
2023-11-06T07:10:11.451Z,98995.13
2023-11-06T07:12:41.816Z,98985.59
2023-11-06T07:15:12.233Z,99004.59
2023-11-06T07:17:42.511Z,99001.16
2023-11-06T07:20:17.222Z,99001.06
2023-11-06T07:22:47.696Z,99003.47
2023-11-06T07:25:18.329Z,99009.81
2023-11-06T07:27:48.498Z,99014.97
2023-11-06T07:30:18.912Z,99014.97
2023-11-06T07:32:49.128Z,99017.84
2023-11-06T07:35:19.470Z,99019.81
2023-11-06T07:37:49.676Z,99025.84
2023-11-06T07:40:19.955Z,99029.41
2023-11-06T07:42:50.108Z,99032.63
2023-11-06T07:45:20.388Z,99032.84
2023-11-06T07:47:50.614Z,99038.25
2023-11-06T07:50:20.928Z,99047.22
2023-11-06T07:52:51.448Z,99054.28
2023-11-06T07:55:21.867Z,99064.53
2023-11-06T07:57:52.444Z,99063.94
2023-11-06T08:00:29.389Z,99061.88
2023-11-06T08:03:05.761Z,99067.84
2023-11-06T08:05:37.450Z,99072.53
2023-11-06T08:08:07.674Z,99077.84
2023-11-06T08:10:37.958Z,99082.50
2023-11-06T08:13:08.349Z,99091.53
2023-11-06T08:15:38.649Z,99090.13
2023-11-06T08:18:08.992Z,99093.34
2023-11-06T08:20:39.166Z,99086.13
2023-11-06T08:23:09.626Z,99094.88
2023-11-06T08:25:39.786Z,99095.88
2023-11-06T08:28:10.032Z,99100.97
2023-11-06T08:30:40.248Z,99107.69
2023-11-06T08:33:10.638Z,99116.81
2023-11-06T08:35:40.917Z,99130.03
2023-11-06T08:38:11.393Z,99127.00
2023-11-06T08:40:41.678Z,99142.97
2023-11-06T08:43:15.412Z,99143.81
2023-11-06T08:45:47.261Z,99149.50
2023-11-06T08:48:17.559Z,99148.63
2023-11-06T08:50:46.081Z,99160.41
2023-11-06T08:53:14.361Z,99158.88
2023-11-06T08:55:42.634Z,99162.69
2023-11-06T08:58:17.192Z,99179.66
2023-11-06T09:00:49.086Z,99180.31
2023-11-06T09:03:19.540Z,99186.94
2023-11-06T09:05:50.948Z,99200.19
2023-11-06T09:08:21.451Z,99197.16
2023-11-06T09:10:51.614Z,99203.06
2023-11-06T09:13:21.872Z,99194.59
2023-11-06T09:15:52.031Z,99203.69
2023-11-06T09:18:22.258Z,99211.66
2023-11-06T09:20:52.825Z,99209.69
2023-11-06T09:23:23.192Z,99219.50
2023-11-06T09:25:56.264Z,99227.53
2023-11-06T09:28:26.308Z,99232.72
2023-11-06T09:30:56.423Z,99241.59
2023-11-06T09:33:26.611Z,99241.31
2023-11-06T09:35:56.829Z,99252.41
2023-11-06T09:38:27.104Z,99257.50
2023-11-06T09:40:57.997Z,99257.94
2023-11-06T09:43:28.421Z,99254.72
2023-11-06T09:45:58.931Z,99252.41
2023-11-06T09:48:33.032Z,99261.34
2023-11-06T09:51:34.883Z,99262.31
2023-11-06T09:54:06.375Z,99266.72
2023-11-06T09:56:43.770Z,99276.28
2023-11-06T09:59:16.453Z,99272.50
2023-11-06T10:01:46.880Z,99277.63
2023-11-06T10:04:17.142Z,99275.28
2023-11-06T10:06:54.208Z,99285.41
2023-11-06T10:09:27.342Z,99290.25
2023-11-06T10:12:19.370Z,99281.97
2023-11-06T10:14:49.686Z,99291.84
2023-11-06T10:17:19.468Z,99301.41
2023-11-06T10:20:08.757Z,99302.50
2023-11-06T10:22:58.586Z,99304.44
2023-11-06T10:25:34.004Z,99303.22
2023-11-06T10:28:19.055Z,99298.16
2023-11-06T10:30:54.805Z,99315.78
2023-11-06T10:33:25.583Z,99314.25
2023-11-06T10:35:56.726Z,99317.13
2023-11-06T10:38:35.816Z,99324.94
2023-11-06T10:41:27.097Z,99321.22
2023-11-06T10:44:03.971Z,99325.38
2023-11-06T10:46:37.563Z,99325.50
2023-11-06T10:49:36.014Z,99326.59
2023-11-06T10:52:08.756Z,99341.88
2023-11-06T10:54:42.026Z,99350.38
2023-11-06T10:57:17.702Z,99340.84
2023-11-06T10:59:48.817Z,99344.91
2023-11-06T11:02:46.776Z,99345.41
2023-11-06T11:05:33.976Z,99352.72
2023-11-06T11:08:06.719Z,99349.22
2023-11-06T11:10:37.059Z,99349.38
2023-11-06T11:13:07.202Z,99366.16
2023-11-06T11:15:37.417Z,99363.94
2023-11-06T11:18:12.806Z,99366.66
2023-11-06T11:21:03.406Z,99364.91
2023-11-06T11:23:51.052Z,99362.78
2023-11-06T11:26:21.270Z,99369.56
2023-11-06T11:29:11.030Z,99369.28
2023-11-06T11:31:45.974Z,99389.09
2023-11-06T11:34:31.870Z,99383.56
2023-11-06T11:37:28.082Z,99389.94
2023-11-06T11:40:02.982Z,99387.16
2023-11-06T11:42:33.435Z,99397.91
2023-11-06T11:45:08.373Z,99391.28
2023-11-06T11:47:57.508Z,99396.38
2023-11-06T11:50:38.295Z,99390.28
2023-11-06T11:53:10.323Z,99403.13
2023-11-06T11:55:40.711Z,99406.59
2023-11-06T11:58:15.667Z,99411.00
2023-11-06T12:00:46.292Z,99402.72
2023-11-06T12:03:18.391Z,99413.41
2023-11-06T12:05:59.531Z,99415.72
2023-11-06T12:08:30.187Z,99421.88
2023-11-06T12:11:12.102Z,99416.97
2023-11-06T12:13:42.409Z,99421.88
2023-11-06T12:16:12.422Z,99426.13
2023-11-06T12:18:45.389Z,99428.88
2023-11-06T12:21:16.784Z,99433.41
2023-11-06T12:23:46.901Z,99433.69
2023-11-06T12:26:18.729Z,99430.00
2023-11-06T12:28:50.133Z,99427.59
2023-11-06T12:31:21.250Z,99433.22
2023-11-06T12:33:51.614Z,99427.59
2023-11-06T12:36:32.246Z,99436.44
2023-11-06T12:39:03.513Z,99443.41
2023-11-06T12:41:33.833Z,99442.97
2023-11-06T12:44:05.320Z,99447.22
2023-11-06T12:49:20.144Z,99449.22
2023-11-06T12:51:52.383Z,99441.44
2023-11-06T12:54:25.841Z,99442.25
2023-11-06T12:56:59.322Z,99447.97
2023-11-06T12:59:29.348Z,99455.25
2023-11-06T13:02:00.353Z,99444.84
2023-11-06T13:04:31.837Z,99453.19
2023-11-06T13:07:02.294Z,99452.38
2023-11-06T13:09:37.086Z,99447.53
2023-11-06T13:12:06.455Z,99457.47
2023-11-06T13:14:36.329Z,99455.94
2023-11-06T13:17:08.419Z,99459.72
2023-11-06T13:19:40.396Z,99459.31
2023-11-06T13:22:12.987Z,99461.09
2023-11-06T13:24:44.382Z,99459.50
2023-11-06T13:27:17.050Z,99456.97
2023-11-06T13:29:47.214Z,99460.13
2023-11-06T13:32:17.182Z,99459.50
2023-11-06T13:34:47.270Z,99460.75
2023-11-06T13:37:17.102Z,99478.31
2023-11-06T13:39:50.783Z,99473.72
2023-11-06T13:42:21.307Z,99469.47
2023-11-06T13:44:50.169Z,99471.94
2023-11-06T13:47:20.402Z,99473.38
2023-11-06T13:49:51.317Z,99482.97
2023-11-06T13:52:25.605Z,99481.81
2023-11-06T13:54:55.765Z,99483.84
2023-11-06T13:57:26.288Z,99484.59
2023-11-06T13:59:55.678Z,99486.00
2023-11-06T14:02:25.567Z,99484.22
2023-11-06T14:04:59.237Z,99478.84
2023-11-06T14:07:29.441Z,99484.28
2023-11-06T14:09:59.195Z,99488.56
2023-11-06T14:12:29.127Z,99500.13
2023-11-06T14:14:59.535Z,99501.13
2023-11-06T14:17:32.596Z,99493.78
2023-11-06T14:20:01.784Z,99493.34
2023-11-06T14:22:29.912Z,99504.56
2023-11-06T14:24:58.390Z,99505.81
2023-11-06T14:27:29.433Z,99510.91
2023-11-06T14:29:58.579Z,99509.81
2023-11-06T14:32:28.250Z,99519.03
2023-11-06T14:34:58.644Z,99512.53
2023-11-06T14:37:31.418Z,99511.88
2023-11-06T14:39:59.764Z,99516.09
2023-11-06T14:42:29.847Z,99526.16
2023-11-06T14:45:00.457Z,99527.22
2023-11-06T14:47:29.745Z,99532.94
2023-11-06T14:50:05.327Z,99535.03
2023-11-06T14:52:40.177Z,99539.31
2023-11-06T14:55:13.856Z,99541.31
2023-11-06T14:57:43.923Z,99543.97
2023-11-06T15:00:17.076Z,99548.13
2023-11-06T15:02:48.724Z,99543.41
2023-11-06T15:05:18.620Z,99544.31
2023-11-06T15:07:52.831Z,99553.22
2023-11-06T15:10:30.136Z,99554.28
2023-11-06T15:13:00.927Z,99545.06
2023-11-06T15:15:30.590Z,99546.47
2023-11-06T15:18:00.768Z,99555.84
2023-11-06T15:20:30.920Z,99559.19
2023-11-06T15:23:01.150Z,99561.66
2023-11-06T15:25:35.612Z,99568.72
2023-11-06T15:28:06.962Z,99565.38
2023-11-06T15:30:34.985Z,99567.56
2023-11-06T15:33:05.856Z,99571.50
2023-11-06T15:35:33.971Z,99574.03
2023-11-06T15:38:04.358Z,99571.50
2023-11-06T15:40:34.239Z,99571.72
2023-11-06T15:43:04.935Z,99578.88
2023-11-06T15:45:35.308Z,99580.84
2023-11-06T15:48:05.415Z,99579.22
2023-11-06T15:50:36.642Z,99577.28
2023-11-06T15:53:09.695Z,99585.22
2023-11-06T15:55:38.371Z,99591.47
2023-11-06T15:58:08.476Z,99590.75
2023-11-06T16:00:38.391Z,99581.31
2023-11-06T16:03:08.617Z,99592.59
2023-11-06T16:05:40.412Z,99595.03
2023-11-06T16:08:10.581Z,99593.31
2023-11-06T16:10:40.441Z,99593.19
2023-11-06T16:13:10.408Z,99591.91
2023-11-06T16:15:40.272Z,99596.75
2023-11-06T16:18:10.587Z,99600.44
2023-11-06T16:20:40.585Z,99601.38
2023-11-06T16:23:10.775Z,99606.44
2023-11-06T16:25:41.451Z,99594.44
2023-11-06T16:28:12.927Z,99602.66
2023-11-06T16:30:43.052Z,99601.84
2023-11-06T16:33:11.623Z,99602.19
2023-11-06T16:35:41.893Z,99594.81
2023-11-06T16:38:12.010Z,99601.84
2023-11-06T16:40:44.762Z,99612.09
2023-11-06T16:43:14.816Z,99608.28
2023-11-06T16:45:44.864Z,99617.06
2023-11-06T16:48:14.966Z,99617.66
2023-11-06T16:50:47.534Z,99620.53
2023-11-06T16:53:17.702Z,99617.06
2023-11-06T16:55:48.552Z,99626.75
2023-11-06T16:58:16.070Z,99633.31
2023-11-06T17:00:45.283Z,99633.88
2023-11-06T17:03:13.138Z,99636.31
2023-11-06T17:05:43.423Z,99631.00
2023-11-06T17:08:12.735Z,99634.25
2023-11-06T17:10:41.948Z,99640.16
2023-11-06T17:13:10.696Z,99632.38
2023-11-06T17:15:38.077Z,99634.56
2023-11-06T17:18:06.616Z,99648.28
2023-11-06T17:20:34.875Z,99650.59
2023-11-06T17:23:04.104Z,99644.72
2023-11-06T17:25:32.066Z,99655.31
2023-11-06T17:28:00.014Z,99654.63
2023-11-06T17:30:28.535Z,99657.63
2023-11-06T17:32:56.981Z,99665.22
2023-11-06T17:35:25.381Z,99666.81
2023-11-06T17:37:53.822Z,99658.75
2023-11-06T17:42:50.727Z,99660.56
2023-11-06T17:45:19.205Z,99662.06
2023-11-06T17:47:47.528Z,99662.06
2023-11-06T17:50:16.370Z,99670.56
2023-11-06T17:52:44.252Z,99670.59
2023-11-06T17:55:12.820Z,99676.22
2023-11-06T17:57:41.085Z,99675.47
2023-11-06T18:00:15.099Z,99674.06
2023-11-06T18:02:45.734Z,99679.47
2023-11-06T18:05:16.672Z,99677.88
2023-11-06T18:07:48.036Z,99679.72
2023-11-06T18:10:18.919Z,99688.69
2023-11-06T18:12:49.137Z,99681.41
2023-11-06T18:15:19.689Z,99685.03
2023-11-06T18:17:49.896Z,99691.09
2023-11-06T18:20:20.293Z,99686.69
2023-11-06T18:22:50.500Z,99689.78
2023-11-06T18:25:21.328Z,99695.19
2023-11-06T18:27:51.662Z,99695.50
2023-11-06T18:30:22.147Z,99686.41
2023-11-06T18:32:52.379Z,99695.72
2023-11-06T18:35:22.791Z,99691.16
2023-11-06T18:37:53.159Z,99703.84
2023-11-06T18:40:23.387Z,99700.13
2023-11-06T18:42:53.927Z,99699.84
2023-11-06T18:45:24.299Z,99702.94
2023-11-06T18:47:54.612Z,99707.50
2023-11-06T18:50:25.071Z,99712.38
2023-11-06T18:52:55.555Z,99709.81
2023-11-06T18:55:25.062Z,99703.53
2023-11-06T18:57:53.150Z,99715.41
2023-11-06T19:00:22.063Z,99712.50
2023-11-06T19:02:50.462Z,99709.25
2023-11-06T19:05:21.250Z,99712.84
2023-11-06T19:07:53.786Z,99723.59
2023-11-06T19:10:24.593Z,99723.75
2023-11-06T19:12:54.871Z,99715.31
2023-11-06T19:15:25.117Z,99726.84
2023-11-06T19:17:55.471Z,99719.53
2023-11-06T19:20:27.838Z,99723.13
2023-11-06T19:22:58.023Z,99724.09
2023-11-06T19:25:28.320Z,99732.03
2023-11-06T19:27:59.760Z,99727.97
2023-11-06T19:30:33.967Z,99722.94
2023-11-06T19:33:04.924Z,99728.31
2023-11-06T19:35:35.912Z,99725.25
2023-11-06T19:38:06.107Z,99731.06
2023-11-06T19:40:36.378Z,99732.06
2023-11-06T19:43:06.643Z,99731.06
2023-11-06T19:45:36.909Z,99729.75
2023-11-06T19:48:07.219Z,99736.72
2023-11-06T19:50:37.617Z,99730.09
2023-11-06T19:53:07.842Z,99726.34
2023-11-06T19:55:38.073Z,99736.22
2023-11-06T19:58:08.264Z,99742.88
2023-11-06T20:00:40.647Z,99738.00
2023-11-06T20:03:11.084Z,99729.50
2023-11-06T20:05:43.897Z,99740.03
2023-11-06T20:08:13.336Z,99741.34
2023-11-06T20:10:41.274Z,99741.16
2023-11-06T20:13:11.230Z,99745.53
2023-11-06T20:15:40.978Z,99744.06
2023-11-06T20:18:09.473Z,99748.78
2023-11-06T20:20:37.816Z,99747.97
2023-11-06T20:23:06.240Z,99748.66
2023-11-06T20:25:34.726Z,99749.94
2023-11-06T20:28:03.067Z,99751.25
2023-11-06T20:30:31.791Z,99755.53
2023-11-06T20:32:59.960Z,99762.19
2023-11-06T20:35:30.352Z,99768.34
2023-11-06T20:38:00.699Z,99763.34
2023-11-06T20:40:31.211Z,99767.25
2023-11-06T20:43:01.344Z,99761.09
2023-11-06T20:45:32.116Z,99767.75
2023-11-06T20:48:02.496Z,99762.72
2023-11-06T20:50:33.412Z,99763.88
2023-11-06T20:53:03.564Z,99759.66
2023-11-06T20:55:33.821Z,99766.47
2023-11-06T20:58:03.991Z,99774.06
2023-11-06T21:00:32.434Z,99769.53
2023-11-06T21:03:00.916Z,99771.97
2023-11-06T21:05:29.286Z,99772.47
2023-11-06T21:07:57.704Z,99770.81
2023-11-06T21:10:26.176Z,99766.94
2023-11-06T21:12:54.595Z,99775.03
2023-11-06T21:15:23.629Z,99774.84
2023-11-06T21:17:51.612Z,99786.53
2023-11-06T21:20:19.824Z,99781.34
2023-11-06T21:22:48.202Z,99787.00
2023-11-06T21:25:16.781Z,99782.63
2023-11-06T21:27:44.971Z,99787.47
2023-11-06T21:30:13.625Z,99791.06
2023-11-06T21:32:41.951Z,99781.00
2023-11-06T21:35:10.303Z,99786.34
2023-11-06T21:37:38.610Z,99788.28
2023-11-06T21:40:12.997Z,99787.47
2023-11-06T21:42:43.248Z,99788.28
2023-11-06T21:45:13.827Z,99791.66
2023-11-06T21:47:44.085Z,99798.47
2023-11-06T21:50:14.544Z,99796.16
2023-11-06T21:52:44.975Z,99805.75
2023-11-06T21:55:15.733Z,99805.88
2023-11-06T21:57:51.433Z,99808.34
2023-11-06T22:00:21.797Z,99806.69
2023-11-06T22:02:52.351Z,99810.41
2023-11-06T22:05:22.875Z,99814.31
2023-11-06T22:07:53.113Z,99815.75
2023-11-06T22:10:25.746Z,99829.03
2023-11-06T22:12:56.690Z,99823.66
2023-11-06T22:15:27.808Z,99832.25
2023-11-06T22:18:02.302Z,99831.13
2023-11-06T22:20:33.346Z,99831.59
2023-11-06T22:23:03.802Z,99829.59
2023-11-06T22:25:33.342Z,99834.09
2023-11-06T22:28:01.896Z,99844.94
2023-11-06T22:30:30.529Z,99846.75
2023-11-06T22:32:58.584Z,99855.19
2023-11-06T22:35:27.460Z,99849.38
2023-11-06T22:37:55.308Z,99862.81
2023-11-06T22:40:23.840Z,99856.69
2023-11-06T22:42:52.125Z,99863.81
2023-11-06T22:45:21.039Z,99869.31
2023-11-06T22:47:52.565Z,99881.53
2023-11-06T22:50:23.156Z,99879.47
2023-11-06T22:52:53.376Z,99884.31
2023-11-06T22:55:25.027Z,99878.84
2023-11-06T22:57:55.205Z,99881.66
2023-11-06T23:00:29.080Z,99882.50
2023-11-06T23:02:59.997Z,99881.34
2023-11-06T23:05:30.226Z,99880.41
2023-11-06T23:08:00.590Z,99880.59
2023-11-06T23:10:30.794Z,99877.81
2023-11-06T23:13:00.999Z,99881.06
2023-11-06T23:15:31.140Z,99885.63
2023-11-06T23:18:02.696Z,99889.19
2023-11-06T23:20:32.971Z,99891.03
2023-11-06T23:23:03.714Z,99893.13
2023-11-06T23:25:38.655Z,99894.25
2023-11-06T23:28:09.836Z,99898.94
2023-11-06T23:30:40.253Z,99905.44
2023-11-06T23:33:10.611Z,99905.94
2023-11-06T23:35:41.741Z,99895.41
2023-11-06T23:38:11.955Z,99893.81
2023-11-06T23:40:42.361Z,99905.44
2023-11-06T23:43:13.104Z,99902.50
2023-11-06T23:45:41.072Z,99904.84
2023-11-06T23:48:11.604Z,99911.34
2023-11-06T23:50:40.823Z,99905.97
2023-11-06T23:53:09.190Z,99916.69
2023-11-06T23:55:37.614Z,99915.72
